Time;durP1;ratioP1;P1;durP2;ratioP2;P2;SDS_P1;SDS_P2;PMS_P1;PMS_P2;Temp;Humidity;BMP_temperature;BMP_pressure;BME280_temperature;BME280_humidity;BME280_pressure;Samples;Min_cycle;Max_cycle;Signal;HPM_P1;HPM_P2
2022/09/15 00:01:53;;;;;;;6.43;3.60;;;13.20;99.90;;;;;;4979063;28;20050;-86
2022/09/15 00:04:18;;;;;;;6.55;3.40;;;13.30;99.90;;;;;;4979846;28;20096;-86
2022/09/15 00:06:44;;;;;;;5.95;2.72;;;13.20;99.90;;;;;;4986885;28;20034;-86
2022/09/15 00:09:09;;;;;;;6.65;3.20;;;13.30;99.90;;;;;;4989136;28;20046;-86
2022/09/15 00:11:36;;;;;;;5.20;3.30;;;13.20;99.90;;;;;;4967235;28;20161;-86
2022/09/15 00:14:04;;;;;;;8.15;3.80;;;13.20;99.90;;;;;;4981305;28;20038;-86
2022/09/15 00:16:30;;;;;;;6.40;3.60;;;13.20;99.90;;;;;;4984994;28;20069;-86
2022/09/15 00:18:57;;;;;;;6.53;3.40;;;13.30;99.90;;;;;;4987161;28;20046;-85
2022/09/15 00:21:26;;;;;;;5.97;3.53;;;13.40;99.90;;;;;;4988584;28;20077;-86
2022/09/15 00:23:52;;;;;;;6.40;4.03;;;13.40;99.90;;;;;;4989223;28;20077;-85
2022/09/15 00:26:24;;;;;;;7.40;3.67;;;13.40;99.90;;;;;;4988215;28;20046;-86
2022/09/15 00:28:51;;;;;;;6.93;3.63;;;13.50;99.90;;;;;;4986561;28;20411;-85
2022/09/15 00:31:20;;;;;;;7.60;4.13;;;13.50;99.90;;;;;;4999471;28;20050;-86
2022/09/15 00:33:54;;;;;;;8.27;4.15;;;13.60;99.90;;;;;;4968578;28;20042;-86
2022/09/15 00:36:21;;;;;;;7.93;4.25;;;13.60;99.90;;;;;;4987169;28;20085;-86
2022/09/15 00:38:47;;;;;;;8.75;4.40;;;13.70;99.90;;;;;;4983322;28;20154;-85
2022/09/15 00:41:15;;;;;;;7.90;4.88;;;13.70;99.90;;;;;;4969946;28;20046;-86
2022/09/15 00:44:00;;;;;;;7.80;5.07;;;13.80;99.90;;;;;;4984593;28;20873;-86
2022/09/15 00:46:28;;;;;;;8.15;5.50;;;13.80;99.90;;;;;;4970254;28;20049;-86
2022/09/15 00:49:14;;;;;;;9.13;5.88;;;13.80;99.90;;;;;;4996669;28;20077;-86
2022/09/15 00:52:07;;;;;;;10.52;6.00;;;13.90;99.90;;;;;;4980025;28;20042;-86
2022/09/15 00:54:58;;;;;;;8.30;5.45;;;13.90;99.90;;;;;;4978742;28;20324;-85
2022/09/15 00:57:38;;;;;;;9.60;5.93;;;14.00;99.90;;;;;;4983273;28;20045;-85
2022/09/15 01:00:08;;;;;;;9.10;5.35;;;14.10;99.90;;;;;;4987631;28;20599;-86
2022/09/15 01:02:36;;;;;;;10.07;5.40;;;14.10;99.90;;;;;;4981648;28;20054;-86
2022/09/15 01:05:06;;;;;;;10.32;5.40;;;14.10;99.90;;;;;;4984488;28;20344;-86
2022/09/15 01:07:40;;;;;;;9.88;5.80;;;14.20;99.90;;;;;;4985683;28;20042;-86
2022/09/15 01:10:12;;;;;;;12.02;6.22;;;14.20;99.90;;;;;;4985880;28;20069;-86
2022/09/15 01:12:40;;;;;;;10.57;5.93;;;14.30;99.90;;;;;;4986133;28;20043;-86
2022/09/15 01:15:06;;;;;;;10.52;6.90;;;14.30;99.90;;;;;;4987801;28;20042;-85
2022/09/15 01:18:05;;;;;;;11.07;6.30;;;14.30;99.90;;;;;;4986709;28;20113;-86
2022/09/15 01:20:43;;;;;;;10.40;5.95;;;14.30;99.90;;;;;;4966561;28;20058;-85
2022/09/15 01:23:20;;;;;;;9.70;6.18;;;14.30;99.90;;;;;;4982875;28;20050;-85
2022/09/15 01:26:10;;;;;;;11.18;6.05;;;14.30;99.90;;;;;;4984878;28;20038;-86
2022/09/15 01:28:52;;;;;;;9.90;6.20;;;14.30;99.90;;;;;;4979410;28;20043;-86
2022/09/15 01:31:29;;;;;;;11.18;5.75;;;14.30;99.90;;;;;;4980731;28;20053;-85
2022/09/15 01:34:15;;;;;;;10.52;5.57;;;14.40;99.90;;;;;;4999943;28;20043;-85
2022/09/15 01:36:48;;;;;;;8.80;4.63;;;14.40;99.90;;;;;;4976786;28;20046;-86
2022/09/15 01:39:19;;;;;;;12.10;5.07;;;14.40;99.90;;;;;;4987785;28;20035;-86
2022/09/15 01:41:50;;;;;;;7.80;3.47;;;14.40;99.90;;;;;;4985250;28;20038;-86
2022/09/15 01:44:25;;;;;;;8.63;3.50;;;14.30;99.90;;;;;;4982197;28;20093;-86
2022/09/15 01:46:58;;;;;;;7.85;3.00;;;14.40;99.90;;;;;;4972077;28;20042;-85
2022/09/15 01:49:36;;;;;;;8.50;2.83;;;14.40;99.90;;;;;;4985051;28;20117;-86
2022/09/15 01:52:02;;;;;;;6.97;2.67;;;14.40;99.90;;;;;;4983995;28;20046;-86
2022/09/15 01:54:34;;;;;;;6.97;2.60;;;14.50;99.90;;;;;;4987382;28;20042;-86
2022/09/15 01:57:01;;;;;;;8.23;2.78;;;14.50;99.90;;;;;;4985071;28;20053;-86
2022/09/15 01:59:27;;;;;;;7.18;2.58;;;14.50;99.90;;;;;;4983410;28;20042;-86
2022/09/15 02:02:22;;;;;;;8.90;2.80;;;14.50;99.90;;;;;;4984382;28;20046;-86
2022/09/15 02:05:02;;;;;;;7.30;2.60;;;14.50;99.90;;;;;;4968886;28;20447;-86
2022/09/15 02:07:43;;;;;;;8.73;2.53;;;14.50;99.90;;;;;;4972483;28;20089;-86
2022/09/15 02:10:18;;;;;;;;;;;14.50;99.90;;;;;;4991300;28;20125;-85
2022/09/15 02:13:10;;;;;;;9.02;2.20;;;14.40;99.90;;;;;;5000680;28;19925;-86
2022/09/15 02:15:46;;;;;;;7.82;2.30;;;14.50;99.90;;;;;;4985537;28;20450;-86
2022/09/15 02:18:21;;;;;;;7.47;2.20;;;14.50;99.90;;;;;;4978118;28;20054;-86
2022/09/15 02:21:08;;;;;;;6.80;2.25;;;14.50;99.90;;;;;;4990735;28;20038;-86
2022/09/15 02:23:39;;;;;;;8.63;2.47;;;14.50;99.90;;;;;;4973746;28;20060;-87
2022/09/15 02:26:11;;;;;;;7.50;2.20;;;14.50;99.90;;;;;;4991824;28;20042;-87
2022/09/15 02:28:39;;;;;;;7.45;2.38;;;14.50;99.90;;;;;;4990008;28;20108;-85
2022/09/15 02:31:09;;;;;;;8.70;2.33;;;14.50;99.90;;;;;;4987715;28;20042;-86
2022/09/15 02:33:39;;;;;;;9.25;2.35;;;14.50;99.90;;;;;;4977989;28;20030;-86
2022/09/15 02:36:07;;;;;;;6.60;2.00;;;14.50;99.90;;;;;;4985041;28;20050;-86
2022/09/15 02:38:39;;;;;;;10.23;2.20;;;14.50;99.90;;;;;;4982752;28;20069;-85
2022/09/15 02:41:05;;;;;;;7.68;2.22;;;14.50;99.90;;;;;;4990023;28;20085;-86
2022/09/15 02:43:31;;;;;;;5.40;2.05;;;14.50;99.90;;;;;;4988934;28;20042;-86
2022/09/15 02:45:57;;;;;;;7.43;2.30;;;14.50;99.90;;;;;;4988729;28;20052;-86
2022/09/15 02:48:24;;;;;;;6.07;2.05;;;14.50;99.90;;;;;;4977374;28;20047;-85
2022/09/15 02:50:50;;;;;;;6.97;2.22;;;14.50;99.90;;;;;;4996793;28;20478;-87
2022/09/15 02:53:15;;;;;;;8.60;2.20;;;14.50;99.90;;;;;;4989220;28;20043;-86
2022/09/15 02:55:41;;;;;;;8.23;2.13;;;14.40;99.90;;;;;;4994247;28;20061;-85
2022/09/15 02:58:07;;;;;;;9.45;2.10;;;14.50;99.90;;;;;;4992753;28;20046;-86
2022/09/15 03:00:32;;;;;;;7.18;2.17;;;14.50;99.90;;;;;;4985646;28;20054;-86
2022/09/15 03:02:58;;;;;;;8.98;2.15;;;14.40;99.90;;;;;;4979715;28;20039;-86
2022/09/15 03:05:28;;;;;;;8.07;1.80;;;14.40;99.90;;;;;;5002700;28;20376;-86
2022/09/15 03:07:55;;;;;;;7.75;1.73;;;14.40;99.90;;;;;;4994421;28;20040;-86
2022/09/15 03:10:22;;;;;;;8.38;1.95;;;14.40;99.90;;;;;;4976744;28;20117;-86
2022/09/15 03:12:50;;;;;;;9.95;1.70;;;14.50;99.90;;;;;;5001390;28;20086;-86
2022/09/15 03:15:19;;;;;;;8.63;1.65;;;14.40;99.90;;;;;;4981859;28;20046;-87
2022/09/15 03:17:46;;;;;;;7.82;1.65;;;14.40;99.90;;;;;;4988457;28;20042;-87
2022/09/15 03:20:15;;;;;;;7.85;2.05;;;14.40;99.90;;;;;;4971749;28;20339;-87
2022/09/15 03:22:41;;;;;;;7.07;1.63;;;14.40;99.90;;;;;;4985685;28;20081;-86
2022/09/15 03:25:08;;;;;;;9.32;2.42;;;14.40;99.90;;;;;;4972616;28;20582;-86
2022/09/15 03:27:34;;;;;;;7.22;1.60;;;14.40;99.90;;;;;;4971139;28;20042;-86
2022/09/15 03:30:00;;;;;;;7.25;1.60;;;14.40;99.90;;;;;;4988364;28;20116;-86
2022/09/15 03:32:26;;;;;;;7.63;1.92;;;14.40;99.90;;;;;;4988103;28;20050;-86
2022/09/15 03:34:52;;;;;;;8.10;1.95;;;14.40;99.90;;;;;;4986015;28;20418;-86
2022/09/15 03:37:18;;;;;;;7.65;1.75;;;14.40;99.90;;;;;;4987583;28;20042;-86
2022/09/15 03:39:44;;;;;;;7.10;1.77;;;14.40;99.90;;;;;;4988979;28;20042;-87
2022/09/15 03:42:10;;;;;;;7.68;1.85;;;14.40;99.90;;;;;;4987098;28;20146;-87
2022/09/15 03:44:35;;;;;;;7.57;2.00;;;14.40;99.90;;;;;;4970694;28;20101;-86
2022/09/15 03:47:02;;;;;;;6.30;1.80;;;14.30;99.90;;;;;;4987583;28;20438;-86
2022/09/15 03:49:28;;;;;;;7.40;1.85;;;14.30;99.90;;;;;;4986301;28;20042;-86
2022/09/15 03:51:54;;;;;;;7.60;1.88;;;14.30;99.90;;;;;;4982603;28;20042;-86
2022/09/15 03:54:19;;;;;;;6.60;1.80;;;14.30;99.90;;;;;;4994412;28;20451;-87
2022/09/15 03:56:47;;;;;;;6.60;1.80;;;14.30;99.90;;;;;;4989262;28;20081;-86
2022/09/15 03:59:15;;;;;;;7.70;1.90;;;14.30;99.90;;;;;;4989001;28;20090;-86
2022/09/15 04:01:41;;;;;;;10.82;1.92;;;14.30;99.90;;;;;;4981493;28;20502;-86
2022/09/15 04:04:07;;;;;;;9.57;1.90;;;14.30;99.90;;;;;;4978127;28;20042;-87
2022/09/15 04:06:33;;;;;;;6.80;2.05;;;14.30;99.90;;;;;;4985611;28;20042;-86
2022/09/15 04:09:01;;;;;;;7.68;1.80;;;14.30;99.90;;;;;;4987609;28;20196;-86
2022/09/15 04:11:26;;;;;;;6.50;1.90;;;14.30;99.90;;;;;;4989596;28;20401;-86
2022/09/15 04:13:53;;;;;;;9.02;2.33;;;14.30;99.90;;;;;;4986938;28;20121;-87
2022/09/15 04:16:22;;;;;;;8.75;2.03;;;14.30;99.90;;;;;;4987461;28;20042;-86
2022/09/15 04:18:48;;;;;;;7.50;2.00;;;14.30;99.90;;;;;;4987265;28;20038;-86
2022/09/15 04:21:16;;;;;;;11.10;1.98;;;14.30;99.90;;;;;;4986605;28;20189;-87
2022/09/15 04:23:42;;;;;;;7.47;1.73;;;14.30;99.90;;;;;;4990298;28;20122;-86
2022/09/15 04:26:13;;;;;;;6.30;1.80;;;14.20;99.90;;;;;;4985490;28;20498;-87
2022/09/15 04:28:39;;;;;;;6.70;1.70;;;14.30;99.90;;;;;;4988958;28;20169;-87
2022/09/15 04:31:10;;;;;;;6.45;1.70;;;14.30;99.90;;;;;;4989001;28;20113;-86
2022/09/15 04:33:36;;;;;;;8.30;1.75;;;14.30;99.90;;;;;;4987144;28;20053;-87
2022/09/15 04:36:06;;;;;;;7.57;2.30;;;14.20;99.90;;;;;;4986689;28;20043;-87
2022/09/15 04:38:32;;;;;;;7.53;1.75;;;14.20;99.90;;;;;;4984021;28;20043;-86
2022/09/15 04:40:58;;;;;;;8.07;2.08;;;14.20;99.90;;;;;;4984724;28;20609;-87
2022/09/15 04:43:25;;;;;;;7.72;1.90;;;14.20;99.90;;;;;;4983966;28;20088;-86
2022/09/15 04:45:52;;;;;;;6.57;1.75;;;14.20;99.90;;;;;;4966339;28;20050;-87
2022/09/15 04:48:18;;;;;;;7.97;2.25;;;14.20;99.90;;;;;;4999414;28;20101;-86
2022/09/15 04:50:43;;;;;;;7.60;1.90;;;14.20;99.90;;;;;;4986205;28;20128;-86
2022/09/15 04:53:09;;;;;;;8.52;2.15;;;14.10;99.90;;;;;;4985021;28;20635;-86
2022/09/15 04:55:35;;;;;;;7.57;2.08;;;14.10;99.90;;;;;;4986473;28;20092;-86
2022/09/15 04:58:01;;;;;;;9.50;2.00;;;14.10;99.90;;;;;;4986073;28;20043;-85
2022/09/15 05:00:28;;;;;;;8.98;1.85;;;14.10;99.90;;;;;;4982744;28;20054;-85
2022/09/15 05:02:54;;;;;;;7.72;2.28;;;14.10;99.90;;;;;;4983898;28;20483;-85
2022/09/15 05:05:19;;;;;;;6.40;2.15;;;14.10;99.90;;;;;;4986610;28;20205;-87
2022/09/15 05:07:48;;;;;;;8.15;1.95;;;14.00;99.90;;;;;;4986923;28;20376;-85
2022/09/15 05:10:14;;;;;;;8.30;2.20;;;14.10;99.90;;;;;;4985922;28;20129;-86
2022/09/15 05:12:40;;;;;;;8.60;1.90;;;14.10;99.90;;;;;;4986935;28;20499;-85
2022/09/15 05:15:06;;;;;;;8.07;1.92;;;14.10;99.90;;;;;;4984475;28;20081;-85
2022/09/15 05:17:32;;;;;;;9.90;1.90;;;14.10;99.90;;;;;;4983192;28;20069;-86
2022/09/15 05:19:59;;;;;;;7.10;1.88;;;14.10;99.90;;;;;;5001840;28;20038;-86
2022/09/15 05:22:26;;;;;;;9.77;2.33;;;14.10;99.90;;;;;;4966894;28;20799;-86
2022/09/15 05:24:51;;;;;;;7.82;1.80;;;14.10;99.90;;;;;;4987321;28;20054;-86
2022/09/15 05:27:17;;;;;;;11.57;1.73;;;14.10;99.90;;;;;;4980698;28;20037;-86
2022/09/15 05:29:43;;;;;;;9.52;1.80;;;14.10;99.90;;;;;;4982570;28;20483;-86
2022/09/15 05:32:08;;;;;;;8.35;1.70;;;14.10;99.90;;;;;;5001920;28;20089;-86
2022/09/15 05:34:34;;;;;;;8.68;1.90;;;14.10;99.90;;;;;;5000359;28;20038;-87
2022/09/15 05:37:00;;;;;;;7.95;1.73;;;14.20;99.90;;;;;;4983577;28;20092;-86
2022/09/15 05:39:26;;;;;;;9.90;1.80;;;14.20;99.90;;;;;;4983612;28;20038;-86
2022/09/15 05:41:52;;;;;;;8.88;1.67;;;14.20;99.90;;;;;;4991766;28;20039;-86
2022/09/15 05:44:17;;;;;;;7.65;1.55;;;14.20;99.90;;;;;;4990323;28;20084;-86
2022/09/15 05:46:43;;;;;;;6.18;1.60;;;14.20;99.90;;;;;;4989859;28;20070;-87
2022/09/15 05:49:10;;;;;;;7.70;1.40;;;14.20;99.90;;;;;;4992880;28;20486;-86
2022/09/15 05:51:36;;;;;;;10.02;1.70;;;14.20;99.90;;;;;;4992271;28;20045;-86
2022/09/15 05:54:01;;;;;;;7.75;1.55;;;14.20;99.90;;;;;;4993278;28;20034;-86
2022/09/15 05:56:27;;;;;;;8.30;1.92;;;14.30;99.90;;;;;;4993743;28;20035;-86
2022/09/15 05:58:52;;;;;;;8.15;1.58;;;14.30;99.90;;;;;;4990278;28;20046;-86
2022/09/15 06:01:24;;;;;;;8.10;1.80;;;14.40;99.90;;;;;;4975054;28;20096;-86
2022/09/15 06:03:50;;;;;;;7.13;1.45;;;14.40;99.90;;;;;;4993070;28;20057;-86
2022/09/15 06:06:16;;;;;;;5.88;1.50;;;14.40;99.90;;;;;;4992645;28;20039;-86
2022/09/15 06:08:45;;;;;;;6.88;1.50;;;14.40;99.90;;;;;;4987332;28;20050;-87
2022/09/15 06:11:14;;;;;;;5.28;1.67;;;14.40;99.90;;;;;;4990337;28;20042;-87
2022/09/15 06:13:41;;;;;;;7.72;1.77;;;14.50;99.90;;;;;;4983323;28;20042;-87
2022/09/15 06:16:10;;;;;;;8.25;1.70;;;14.50;99.90;;;;;;4987755;28;20372;-88
2022/09/15 06:18:37;;;;;;;6.18;1.50;;;14.60;99.90;;;;;;4989321;28;20421;-88
2022/09/15 06:21:04;;;;;;;8.85;1.63;;;14.70;99.90;;;;;;4983456;28;20062;-89
2022/09/15 06:23:31;;;;;;;6.43;1.50;;;14.70;99.90;;;;;;4989334;28;20329;-87
2022/09/15 06:26:03;;;;;;;9.05;1.80;;;14.80;99.90;;;;;;4986196;28;20104;-85
2022/09/15 06:28:28;;;;;;;7.55;1.80;;;14.90;99.90;;;;;;4990254;28;20131;-87
2022/09/15 06:30:54;;;;;;;7.75;2.05;;;15.00;99.90;;;;;;4993408;28;20082;-87
2022/09/15 06:33:20;;;;;;;9.27;2.05;;;15.10;99.90;;;;;;4996260;28;20482;-87
2022/09/15 06:35:45;;;;;;;7.50;1.50;;;15.20;99.90;;;;;;4991139;28;20248;-86
2022/09/15 06:38:11;;;;;;;7.93;1.63;;;15.20;99.90;;;;;;4992042;28;20049;-87
2022/09/15 06:40:36;;;;;;;7.57;1.40;;;15.30;99.90;;;;;;4987116;28;20130;-86
2022/09/15 06:43:02;;;;;;;7.60;1.75;;;15.30;99.90;;;;;;4990218;28;20046;-86
2022/09/15 06:45:29;;;;;;;6.65;1.70;;;15.40;99.90;;;;;;4987780;28;20407;-86
2022/09/15 06:47:54;;;;;;;6.85;1.50;;;15.40;99.90;;;;;;4982163;28;20064;-86
2022/09/15 06:50:20;;;;;;;7.57;1.67;;;15.40;99.90;;;;;;5002887;28;20042;-86
2022/09/15 06:52:46;;;;;;;7.10;1.63;;;15.40;99.90;;;;;;4989465;28;20172;-86
2022/09/15 06:55:11;;;;;;;7.85;1.85;;;15.50;99.90;;;;;;4991467;28;20050;-87
2022/09/15 06:57:37;;;;;;;9.18;1.73;;;15.50;99.90;;;;;;5007358;28;20045;-86
2022/09/15 07:00:05;;;;;;;7.18;1.40;;;15.50;99.90;;;;;;4989245;28;20393;-87
2022/09/15 07:02:30;;;;;;;7.63;1.83;;;15.50;99.90;;;;;;4984406;28;20061;-86
2022/09/15 07:04:56;;;;;;;6.35;1.38;;;15.50;99.90;;;;;;4992183;28;20050;-86
2022/09/15 07:07:22;;;;;;;6.70;1.77;;;15.50;99.90;;;;;;4986793;28;20487;-85
2022/09/15 07:09:47;;;;;;;9.02;1.90;;;15.50;99.90;;;;;;4990069;28;20085;-85
2022/09/15 07:12:13;;;;;;;7.05;1.80;;;15.60;99.90;;;;;;4986478;28;20049;-84
2022/09/15 07:14:39;;;;;;;7.82;1.60;;;15.60;99.90;;;;;;4964081;28;20085;-85
2022/09/15 07:17:04;;;;;;;7.25;1.55;;;15.70;99.90;;;;;;5005336;28;20069;-85
2022/09/15 07:19:30;;;;;;;7.05;1.40;;;15.70;99.90;;;;;;4991151;28;20130;-85
2022/09/15 07:21:55;;;;;;;8.82;1.63;;;15.70;99.90;;;;;;4991919;28;20074;-85
2022/09/15 07:24:21;;;;;;;6.53;1.58;;;15.70;99.90;;;;;;4979919;28;20129;-86
2022/09/15 07:26:46;;;;;;;7.18;1.48;;;15.80;99.90;;;;;;4978050;28;20042;-85
2022/09/15 07:29:12;;;;;;;9.73;1.75;;;15.80;99.90;;;;;;4960742;28;20047;-85
2022/09/15 07:31:38;;;;;;;5.50;1.30;;;15.80;99.90;;;;;;4975646;28;20053;-85
2022/09/15 07:34:04;;;;;;;7.10;1.30;;;15.80;99.90;;;;;;4991523;28;20042;-84
2022/09/15 07:36:30;;;;;;;9.20;1.95;;;15.80;99.90;;;;;;4989855;28;20034;-84
2022/09/15 07:38:56;;;;;;;6.97;1.50;;;15.90;99.90;;;;;;4992238;28;20045;-85
2022/09/15 07:41:28;;;;;;;6.32;1.40;;;15.80;99.90;;;;;;4990771;28;20093;-84
2022/09/15 07:43:55;;;;;;;7.38;1.25;;;15.90;99.90;;;;;;4986715;28;20120;-84
2022/09/15 07:46:23;;;;;;;6.93;1.55;;;15.90;99.90;;;;;;4991745;28;20049;-85
2022/09/15 07:48:51;;;;;;;7.10;1.17;;;16.00;99.90;;;;;;4990063;28;20031;-87
2022/09/15 07:51:17;;;;;;;7.45;1.50;;;16.10;99.90;;;;;;4990623;28;20061;-87
2022/09/15 07:53:45;;;;;;;5.82;1.20;;;16.20;99.90;;;;;;4989062;28;20128;-86
2022/09/15 07:56:10;;;;;;;7.88;1.48;;;16.30;99.90;;;;;;5015079;28;20053;-87
2022/09/15 07:58:36;;;;;;;7.03;1.40;;;16.30;99.90;;;;;;4990418;28;20121;-84
2022/09/15 08:01:09;;;;;;;6.28;1.33;;;16.30;99.90;;;;;;4987197;28;20133;-85
2022/09/15 08:03:39;;;;;;;6.55;1.40;;;16.30;99.90;;;;;;5003842;28;20745;-86
2022/09/15 08:06:04;;;;;;;10.73;1.30;;;16.30;99.90;;;;;;5002487;28;20054;-85
2022/09/15 08:08:31;;;;;;;7.93;1.20;;;16.40;99.90;;;;;;4987531;28;20502;-86
2022/09/15 08:10:56;;;;;;;7.18;1.33;;;16.40;99.90;;;;;;4988681;28;20080;-86
2022/09/15 08:13:23;;;;;;;9.02;1.35;;;16.40;99.90;;;;;;4979590;28;20038;-86
2022/09/15 08:15:49;;;;;;;6.78;1.40;;;16.40;99.90;;;;;;4987191;28;20046;-88
2022/09/15 08:18:15;;;;;;;7.70;1.95;;;16.50;99.90;;;;;;4987428;28;20038;-87
2022/09/15 08:20:42;;;;;;;6.43;1.20;;;16.50;99.90;;;;;;4988950;28;20042;-87
2022/09/15 08:23:08;;;;;;;8.35;1.52;;;16.60;99.90;;;;;;4984499;28;20038;-89
2022/09/15 08:25:34;;;;;;;6.60;1.20;;;16.70;99.90;;;;;;4985722;28;20045;-89
2022/09/15 08:28:00;;;;;;;5.07;1.25;;;16.80;99.90;;;;;;4963435;28;20034;-87
2022/09/15 08:30:26;;;;;;;6.10;1.05;;;16.90;99.90;;;;;;4982168;28;20046;-85
2022/09/15 08:32:52;;;;;;;7.28;1.40;;;17.00;99.90;;;;;;4977259;28;20053;-85
2022/09/15 08:35:18;;;;;;;6.88;1.20;;;17.10;99.90;;;;;;4985076;28;20038;-86
2022/09/15 08:37:45;;;;;;;5.30;1.30;;;17.00;99.90;;;;;;4980315;28;20050;-84
2022/09/15 08:40:25;;;;;;;6.78;1.17;;;17.00;99.90;;;;;;4989728;28;20045;-86
2022/09/15 08:42:54;;;;;;;7.40;1.47;;;17.10;99.90;;;;;;4981874;28;20443;-86
2022/09/15 08:45:24;;;;;;;5.40;1.20;;;17.00;99.90;;;;;;4972897;28;20296;-86
2022/09/15 08:47:54;;;;;;;7.33;1.20;;;16.90;99.90;;;;;;4979933;28;20100;-87
2022/09/15 08:50:31;;;;;;;6.28;1.20;;;16.90;99.90;;;;;;4986482;28;20041;-88
2022/09/15 08:53:25;;;;;;;8.00;1.30;;;16.80;99.90;;;;;;4984536;28;20046;-85
2022/09/15 08:55:54;;;;;;;6.55;1.30;;;16.70;99.90;;;;;;4977993;28;20256;-86
2022/09/15 08:58:38;;;;;;;10.15;1.67;;;16.60;99.90;;;;;;4980094;28;20034;-86
2022/09/15 09:01:10;;;;;;;6.15;1.35;;;16.60;99.90;;;;;;4983318;28;20058;-85
2022/09/15 09:04:10;;;;;;;8.02;1.42;;;16.60;99.90;;;;;;4985861;28;20050;-86
2022/09/15 09:06:58;;;;;;;8.15;1.30;;;16.70;99.90;;;;;;4972607;28;21354;-86
2022/09/15 09:09:39;;;;;;;7.35;1.35;;;16.70;99.90;;;;;;4987513;28;20050;-85
2022/09/15 09:12:25;;;;;;;;;;;16.90;99.90;;;;;;4987597;28;20507;-86
2022/09/15 09:14:53;;;;;;;7.50;1.40;;;16.90;99.90;;;;;;4976029;28;20008;-85
2022/09/15 09:17:40;;;;;;;6.10;1.20;;;17.10;99.90;;;;;;4989708;28;20077;-85
2022/09/15 09:20:12;;;;;;;7.78;1.20;;;17.20;99.90;;;;;;4988999;28;20054;-86
2022/09/15 09:22:42;;;;;;;6.63;1.30;;;17.30;99.90;;;;;;4992529;28;20114;-87
2022/09/15 09:25:13;;;;;;;5.18;1.20;;;17.40;99.90;;;;;;4977375;28;20054;-85
2022/09/15 09:27:39;;;;;;;;;;;17.50;99.90;;;;;;4988364;28;20042;-84
2022/09/15 09:30:20;;;;;;;8.30;1.40;;;17.60;99.90;;;;;;4983399;28;19988;-85
2022/09/15 09:32:54;;;;;;;3.65;1.13;;;17.70;99.90;;;;;;5007581;28;20046;-86
2022/09/15 09:35:33;;;;;;;5.55;1.00;;;17.80;99.90;;;;;;4987541;28;20042;-85
2022/09/15 09:38:01;;;;;;;4.35;1.20;;;17.90;99.90;;;;;;4977625;28;20126;-83
2022/09/15 09:40:29;;;;;;;6.38;1.10;;;18.00;99.90;;;;;;4987034;28;20043;-86
2022/09/15 09:42:55;;;;;;;8.18;1.48;;;18.00;99.90;;;;;;4988397;28;20082;-85
2022/09/15 09:45:22;;;;;;;6.60;1.20;;;17.90;99.90;;;;;;4987296;28;20080;-85
2022/09/15 09:47:48;;;;;;;7.25;1.30;;;17.90;99.90;;;;;;4990107;28;20042;-85
2022/09/15 09:50:31;;;;;;;7.47;1.30;;;17.90;99.90;;;;;;4987863;28;20375;-85
2022/09/15 09:52:57;;;;;;;6.07;1.10;;;17.80;99.90;;;;;;4984030;28;20046;-86
2022/09/15 09:55:25;;;;;;;7.32;1.40;;;17.80;99.90;;;;;;4988187;28;20048;-87
2022/09/15 09:57:52;;;;;;;8.27;1.52;;;17.80;99.90;;;;;;4988250;28;20050;-86
2022/09/15 10:00:32;;;;;;;5.68;1.30;;;17.80;99.90;;;;;;4962976;28;20058;-88
2022/09/15 10:03:16;;;;;;;6.30;1.38;;;17.80;99.90;;;;;;4976419;28;20054;-87
2022/09/15 10:05:43;;;;;;;5.30;1.40;;;17.80;99.90;;;;;;4988645;28;20101;-87
2022/09/15 10:08:18;;;;;;;5.30;1.10;;;17.90;99.90;;;;;;4992976;28;20042;-87
2022/09/15 10:10:55;;;;;;;3.83;1.05;;;17.90;99.90;;;;;;4980904;28;20483;-88
2022/09/15 10:13:21;;;;;;;4.28;0.90;;;18.00;99.90;;;;;;4978521;28;20047;-86
2022/09/15 10:15:59;;;;;;;5.82;1.00;;;17.90;99.90;;;;;;4984816;28;20034;-84
2022/09/15 10:18:37;;;;;;;6.70;1.17;;;17.90;99.90;;;;;;4974354;28;20419;-84
2022/09/15 10:21:04;;;;;;;5.93;1.00;;;17.90;99.90;;;;;;4982688;28;20118;-87
2022/09/15 10:23:31;;;;;;;2.08;0.70;;;17.90;99.90;;;;;;4971232;28;20093;-89
2022/09/15 10:26:17;;;;;;;5.65;0.80;;;17.90;99.90;;;;;;4994722;28;20052;-85
2022/09/15 10:29:02;;;;;;;4.30;0.80;;;17.70;99.90;;;;;;4985047;28;20050;-86
2022/09/15 10:31:31;;;;;;;4.30;1.00;;;17.80;99.90;;;;;;4989255;28;20117;-85
2022/09/15 10:33:56;;;;;;;7.03;1.10;;;17.70;99.90;;;;;;4991803;28;20097;-86
2022/09/15 10:36:30;;;;;;;4.35;0.90;;;17.70;99.90;;;;;;4989370;28;20038;-87
2022/09/15 10:39:14;;;;;;;5.40;1.10;;;17.80;99.90;;;;;;4989230;28;20043;-86
2022/09/15 10:42:06;;;;;;;5.57;1.02;;;18.00;99.90;;;;;;4988493;28;20112;-85
2022/09/15 10:44:31;;;;;;;;;;;18.10;99.90;;;;;;4986518;28;20043;-86
2022/09/15 10:47:12;;;;;;;4.68;1.00;;;18.10;99.90;;;;;;4990166;28;19926;-86
2022/09/15 10:49:48;;;;;;;3.35;0.77;;;18.20;99.90;;;;;;4987504;28;20038;-86
2022/09/15 10:52:32;;;;;;;3.70;0.80;;;18.20;99.90;;;;;;4992322;28;20511;-85
2022/09/15 10:55:16;;;;;;;4.18;1.00;;;18.20;99.90;;;;;;4987188;28;20057;-87
2022/09/15 10:58:20;;;;;;;6.63;1.08;;;18.10;99.90;;;;;;4972644;28;20050;-86
2022/09/15 11:01:08;;;;;;;4.82;1.17;;;18.00;99.90;;;;;;4961484;28;20316;-86
2022/09/15 11:03:59;;;;;;;5.40;1.10;;;17.80;99.90;;;;;;4994554;28;20049;-86
2022/09/15 11:06:35;;;;;;;6.03;1.33;;;17.60;99.90;;;;;;5000497;28;20117;-85
2022/09/15 11:09:23;;;;;;;6.07;1.10;;;17.40;99.90;;;;;;4990601;28;20034;-86
2022/09/15 11:12:12;;;;;;;4.57;1.40;;;17.20;99.90;;;;;;4973004;28;20531;-85
2022/09/15 11:14:56;;;;;;;5.63;1.13;;;17.20;99.90;;;;;;4985520;28;20042;-87
2022/09/15 11:17:52;;;;;;;5.55;1.20;;;17.10;99.90;;;;;;4991367;28;20046;-89
2022/09/15 11:20:27;;;;;;;5.63;1.20;;;17.00;99.90;;;;;;4991334;28;20434;-88
2022/09/15 11:23:04;;;;;;;5.68;1.35;;;16.90;99.90;;;;;;4991923;28;20038;-87
2022/09/15 11:25:34;;;;;;;5.70;1.02;;;17.00;99.90;;;;;;4991178;28;20042;-88
2022/09/15 11:28:32;;;;;;;6.47;1.17;;;17.00;99.90;;;;;;4991839;28;20054;-87
2022/09/15 11:31:24;;;;;;;7.22;1.20;;;17.10;99.90;;;;;;4918154;29;20164;-86
2022/09/15 11:33:57;;;;;;;7.60;1.50;;;17.10;99.90;;;;;;4951682;29;20047;-87
2022/09/15 11:36:35;;;;;;;6.85;1.35;;;16.90;99.90;;;;;;4934170;29;20062;-88
2022/09/15 11:39:23;;;;;;;5.68;1.38;;;16.90;99.90;;;;;;4916102;29;20503;-88
2022/09/15 11:42:09;;;;;;;5.50;1.30;;;16.70;99.90;;;;;;4914801;29;20140;-89
2022/09/15 11:44:38;;;;;;;7.80;1.35;;;16.60;99.90;;;;;;4930929;29;20492;-87
2022/09/15 11:47:03;;;;;;;9.63;1.42;;;16.50;99.90;;;;;;4931748;29;20081;-88
2022/09/15 11:49:42;;;;;;;6.85;1.38;;;16.60;99.90;;;;;;4932094;29;20497;-88
2022/09/15 11:52:21;;;;;;;5.60;1.30;;;16.50;99.90;;;;;;4916042;29;20051;-87
2022/09/15 11:55:23;;;;;;;5.88;1.42;;;16.40;99.90;;;;;;4931970;29;20048;-88
2022/09/15 11:58:02;;;;;;;7.88;1.67;;;16.50;99.90;;;;;;4932739;29;20044;-88
2022/09/15 12:00:28;;;;;;;7.00;1.30;;;16.60;99.90;;;;;;4916494;29;20135;-87
2022/09/15 12:03:29;;;;;;;6.50;1.40;;;16.80;99.90;;;;;;4899785;29;20400;-87
2022/09/15 12:06:02;;;;;;;4.82;1.38;;;16.90;99.90;;;;;;4931271;29;20134;-86
2022/09/15 12:08:42;;;;;;;5.65;1.10;;;17.00;99.90;;;;;;4980835;28;20050;-86
2022/09/15 12:11:17;;;;;;;5.27;0.93;;;17.00;99.90;;;;;;4989401;28;20102;-88
2022/09/15 12:13:43;;;;;;;5.38;1.00;;;17.10;99.90;;;;;;4990306;28;20384;-88
2022/09/15 12:16:09;;;;;;;4.43;1.02;;;17.20;99.90;;;;;;4990792;28;20046;-88
2022/09/15 12:18:56;;;;;;;6.82;1.17;;;17.30;99.90;;;;;;4989907;28;20399;-88
2022/09/15 12:21:40;;;;;;;3.75;1.00;;;17.40;99.90;;;;;;4967244;28;20046;-86
2022/09/15 12:24:24;;;;;;;3.50;1.00;;;17.40;99.90;;;;;;4993054;28;20096;-88
2022/09/15 12:26:49;;;;;;;4.03;1.00;;;17.50;99.90;;;;;;4995748;28;20045;-86
2022/09/15 12:29:27;;;;;;;3.95;1.10;;;17.50;99.90;;;;;;4998846;28;20042;-88
2022/09/15 12:32:19;;;;;;;5.45;1.08;;;17.40;99.90;;;;;;5000077;28;20156;-90
2022/09/15 12:35:16;;;;;;;4.85;1.15;;;17.40;99.90;;;;;;4998733;28;20054;-88
2022/09/15 12:38:12;;;;;;;5.80;1.00;;;17.40;99.90;;;;;;4985306;28;20042;-87
2022/09/15 12:40:39;;;;;;;5.13;1.00;;;17.40;99.90;;;;;;4985452;28;20053;-88
2022/09/15 12:43:11;;;;;;;7.90;1.20;;;17.50;99.90;;;;;;4998045;28;20056;-88
2022/09/15 12:45:38;;;;;;;5.43;0.93;;;17.50;99.90;;;;;;4995640;28;20046;-87
2022/09/15 12:48:13;;;;;;;3.78;0.90;;;17.60;99.90;;;;;;4987169;28;20119;-86
2022/09/15 12:50:52;;;;;;;3.95;1.15;;;17.60;99.90;;;;;;4995734;28;20037;-87
2022/09/15 12:53:26;;;;;;;4.78;1.02;;;17.60;99.90;;;;;;4994279;28;20081;-87
2022/09/15 12:55:54;;;;;;;3.08;1.10;;;17.80;99.90;;;;;;4993512;28;20042;-87
2022/09/15 12:58:44;;;;;;;4.15;0.93;;;17.80;99.90;;;;;;4993998;28;20070;-88
2022/09/15 13:01:25;;;;;;;4.22;0.93;;;17.90;99.90;;;;;;4988512;28;20061;-90
2022/09/15 13:04:10;;;;;;;3.53;0.80;;;17.90;99.90;;;;;;4991364;28;20057;-88
2022/09/15 13:06:37;;;;;;;4.05;1.10;;;18.00;99.90;;;;;;4984305;28;20046;-86
2022/09/15 13:09:04;;;;;;;2.72;0.90;;;18.00;99.90;;;;;;4991667;28;20402;-89
2022/09/15 13:11:38;;;;;;;3.40;0.80;;;18.00;99.90;;;;;;4994918;28;20043;-88